createdAt,value
2023-02-18T00:00:57.900Z,10.18
2023-02-18T00:03:27.936Z,10.17
2023-02-18T00:05:55.969Z,10.18
2023-02-18T00:08:23.916Z,10.22
2023-02-18T00:10:51.679Z,10.17
2023-02-18T00:13:19.314Z,10.19
2023-02-18T00:15:47.113Z,10.19
2023-02-18T00:18:14.778Z,10.14
2023-02-18T00:20:43.834Z,10.11
2023-02-18T00:23:11.724Z,10.13
2023-02-18T00:25:39.616Z,10.04
2023-02-18T00:28:07.270Z,10.12
2023-02-18T00:30:34.949Z,10.04
2023-02-18T00:33:02.666Z,10.20
2023-02-18T00:35:30.759Z,10.09
2023-02-18T00:37:59.818Z,10.13
2023-02-18T00:40:27.580Z,10.04
2023-02-18T00:42:55.238Z,10.14
2023-02-18T00:45:22.894Z,10.17
2023-02-18T00:47:50.535Z,10.29
2023-02-18T00:50:18.369Z,10.33
2023-02-18T00:52:46.133Z,10.41
2023-02-18T00:55:15.580Z,10.40
2023-02-18T00:57:43.232Z,10.44
2023-02-18T01:00:11.889Z,10.49
2023-02-18T01:02:39.549Z,10.54
2023-02-18T01:05:07.355Z,10.60
2023-02-18T01:07:35.034Z,10.68
2023-02-18T01:10:02.912Z,10.60
2023-02-18T01:12:31.998Z,10.64
2023-02-18T01:14:59.700Z,10.69
2023-02-18T01:17:27.804Z,10.70
2023-02-18T01:19:55.919Z,10.72
2023-02-18T01:22:23.793Z,10.74
2023-02-18T01:24:51.503Z,10.84
2023-02-18T01:27:19.251Z,10.84
2023-02-18T01:29:48.324Z,10.79
2023-02-18T01:32:16.170Z,10.78
2023-02-18T01:34:44.012Z,10.81
2023-02-18T01:37:11.672Z,10.88
2023-02-18T01:39:39.768Z,10.91
2023-02-18T01:42:08.063Z,10.82
2023-02-18T01:44:36.039Z,10.84
2023-02-18T01:47:05.196Z,10.91
2023-02-18T01:49:35.671Z,10.95
2023-02-18T01:52:05.508Z,10.87
2023-02-18T01:54:35.335Z,10.99
2023-02-18T01:57:04.759Z,10.85
2023-02-18T01:59:34.563Z,10.89
2023-02-18T02:02:02.338Z,10.96
2023-02-18T02:04:31.486Z,10.93
2023-02-18T02:06:59.361Z,10.87
2023-02-18T02:09:29.120Z,10.94
2023-02-18T02:12:10.461Z,10.90
2023-02-18T02:14:52.446Z,10.92
2023-02-18T02:17:25.894Z,10.97
2023-02-18T02:20:24.724Z,10.89
2023-02-18T02:23:08.363Z,10.88
2023-02-18T02:25:51.378Z,10.89
2023-02-18T02:28:38.182Z,10.97
2023-02-18T02:31:24.884Z,10.93
2023-02-18T02:34:34.845Z,10.90
2023-02-18T02:37:08.965Z,10.93
2023-02-18T02:39:41.925Z,10.84
2023-02-18T02:42:14.563Z,10.90
2023-02-18T02:44:49.201Z,10.88
2023-02-18T02:47:22.698Z,10.90
2023-02-18T02:49:56.851Z,10.89
2023-02-18T02:52:29.113Z,10.93
2023-02-18T02:54:56.857Z,10.93
2023-02-18T02:57:44.893Z,10.87
2023-02-18T03:00:13.811Z,10.90
2023-02-18T03:02:50.390Z,10.87
2023-02-18T03:05:28.219Z,10.85
2023-02-18T03:08:10.579Z,10.83
2023-02-18T03:10:46.550Z,10.88
2023-02-18T03:13:20.189Z,10.73
2023-02-18T03:15:51.997Z,10.79
2023-02-18T03:18:24.763Z,10.73
2023-02-18T03:20:56.468Z,10.64
2023-02-18T03:23:28.896Z,10.79
2023-02-18T03:25:57.883Z,10.73
2023-02-18T03:28:28.628Z,10.68
2023-02-18T03:30:59.686Z,10.73
2023-02-18T03:33:30.104Z,10.75
2023-02-18T03:35:59.411Z,10.68
2023-02-18T03:38:30.693Z,10.69
2023-02-18T03:40:58.444Z,10.71
2023-02-18T03:43:26.156Z,10.73
2023-02-18T03:45:53.878Z,10.75
2023-02-18T03:48:22.248Z,10.77
2023-02-18T03:50:49.933Z,10.68
2023-02-18T03:53:19.072Z,10.85
2023-02-18T03:55:46.747Z,10.71
2023-02-18T03:58:14.493Z,10.74
2023-02-18T04:00:42.457Z,10.76
2023-02-18T04:03:10.181Z,10.91
2023-02-18T04:05:37.863Z,10.82
2023-02-18T04:08:05.707Z,10.84
2023-02-18T04:10:34.993Z,10.81
2023-02-18T04:13:02.855Z,10.80
2023-02-18T04:15:30.635Z,10.87
2023-02-18T04:17:58.307Z,10.85
2023-02-18T04:20:26.006Z,10.91
2023-02-18T04:22:53.909Z,10.82
2023-02-18T04:25:21.606Z,10.83
2023-02-18T04:27:50.703Z,10.80
2023-02-18T04:30:19.071Z,10.83
2023-02-18T04:32:46.851Z,10.83
2023-02-18T04:35:14.685Z,10.80
2023-02-18T04:37:42.491Z,10.83
2023-02-18T04:40:10.822Z,10.82
2023-02-18T04:42:38.658Z,10.86
2023-02-18T04:45:08.638Z,10.80
2023-02-18T04:47:36.338Z,10.77
2023-02-18T04:50:04.426Z,10.79
2023-02-18T04:52:32.116Z,10.82
2023-02-18T04:55:00.451Z,10.81
2023-02-18T04:57:28.193Z,10.85
2023-02-18T04:59:55.897Z,10.85
2023-02-18T05:02:25.263Z,10.90
2023-02-18T05:04:53.110Z,10.85
2023-02-18T05:07:20.762Z,10.87
2023-02-18T05:09:48.536Z,10.83
2023-02-18T05:12:16.211Z,10.87
2023-02-18T05:14:43.860Z,10.80
2023-02-18T05:17:12.084Z,10.80
2023-02-18T05:19:41.345Z,10.83
2023-02-18T05:22:09.146Z,10.83
2023-02-18T05:24:36.822Z,10.78
2023-02-18T05:27:04.664Z,10.82
2023-02-18T05:29:32.330Z,10.78
2023-02-18T05:32:00.113Z,10.84
2023-02-18T05:34:27.915Z,10.79
2023-02-18T05:36:57.650Z,10.87
2023-02-18T05:39:25.326Z,10.81
2023-02-18T05:41:53.091Z,10.77
2023-02-18T05:44:33.478Z,10.84
2023-02-18T05:47:02.359Z,10.87
2023-02-18T05:49:30.402Z,10.84
2023-02-18T05:51:59.621Z,10.91
2023-02-18T05:54:27.919Z,10.78
2023-02-18T05:56:55.743Z,10.90
2023-02-18T05:59:23.552Z,10.79
2023-02-18T06:01:51.238Z,10.74
2023-02-18T06:04:19.029Z,10.81
2023-02-18T06:06:47.100Z,10.76
2023-02-18T06:09:16.866Z,10.81
2023-02-18T06:11:45.195Z,10.78
2023-02-18T06:14:13.038Z,10.82
2023-02-18T06:16:40.727Z,10.74
2023-02-18T06:19:08.464Z,10.78
2023-02-18T06:21:36.183Z,10.78
2023-02-18T06:24:04.048Z,10.76
2023-02-18T06:26:33.353Z,10.74
2023-02-18T06:29:01.185Z,10.72
2023-02-18T06:31:29.310Z,10.71
2023-02-18T06:33:57.086Z,10.76
2023-02-18T06:36:24.802Z,10.69
2023-02-18T06:38:54.101Z,10.78
2023-02-18T06:41:21.794Z,10.76
2023-02-18T06:43:51.370Z,10.75
2023-02-18T06:46:19.098Z,10.68
2023-02-18T06:48:47.064Z,10.69
2023-02-18T06:51:16.102Z,10.68
2023-02-18T06:53:44.037Z,10.76
2023-02-18T06:56:11.761Z,10.76
2023-02-18T06:58:39.491Z,10.80
2023-02-18T07:01:08.615Z,10.86
2023-02-18T07:03:36.384Z,10.90
2023-02-18T07:06:04.213Z,10.89
2023-02-18T07:08:33.151Z,10.83
2023-02-18T07:11:00.831Z,10.86
2023-02-18T07:13:28.781Z,10.88
2023-02-18T07:15:56.666Z,10.91
2023-02-18T07:18:27.652Z,10.93
2023-02-18T07:20:55.312Z,10.86
2023-02-18T07:23:22.962Z,10.88
2023-02-18T07:25:50.604Z,10.79
2023-02-18T07:28:18.321Z,10.63
2023-02-18T07:30:45.960Z,10.66
2023-02-18T07:33:14.495Z,10.64
2023-02-18T07:35:43.544Z,10.66
2023-02-18T07:38:11.381Z,10.63
2023-02-18T07:40:39.022Z,10.63
2023-02-18T07:43:06.668Z,10.70
2023-02-18T07:45:34.425Z,10.64
2023-02-18T07:48:02.061Z,10.60
2023-02-18T07:50:35.000Z,10.61
2023-02-18T07:53:04.755Z,10.64
2023-02-18T07:55:46.756Z,10.66
2023-02-18T07:58:14.394Z,10.65
2023-02-18T08:00:42.023Z,10.68
2023-02-18T08:03:09.774Z,10.72
2023-02-18T08:05:37.469Z,10.69
2023-02-18T08:08:06.845Z,10.76
2023-02-18T08:10:34.452Z,10.65
2023-02-18T08:13:02.116Z,10.77
2023-02-18T08:15:29.787Z,10.70
2023-02-18T08:17:57.849Z,10.62
2023-02-18T08:20:25.844Z,10.68
2023-02-18T08:22:53.786Z,10.65
2023-02-18T08:25:29.364Z,10.70
2023-02-18T08:27:57.601Z,10.64
2023-02-18T08:30:25.332Z,10.75
2023-02-18T08:32:53.456Z,10.70
2023-02-18T08:35:21.385Z,10.61
2023-02-18T08:37:52.806Z,10.67
2023-02-18T08:40:23.398Z,10.76
2023-02-18T08:42:51.245Z,10.79
2023-02-18T08:45:19.057Z,10.77
2023-02-18T08:48:18.754Z,10.69
2023-02-18T08:50:34.654Z,10.72
2023-02-18T08:53:03.543Z,10.74
2023-02-18T08:55:32.840Z,10.73
2023-02-18T08:58:00.565Z,10.65
2023-02-18T09:00:28.944Z,10.64
2023-02-18T09:02:56.580Z,10.64
2023-02-18T09:05:24.323Z,10.63
2023-02-18T09:07:52.232Z,10.77
2023-02-18T09:10:19.931Z,10.78
2023-02-18T09:12:49.076Z,10.73
2023-02-18T09:15:16.884Z,10.72
2023-02-18T09:17:44.672Z,10.78
2023-02-18T09:20:13.408Z,10.87
2023-02-18T09:22:41.637Z,10.85
2023-02-18T09:25:09.579Z,10.84
2023-02-18T09:27:37.245Z,10.87
2023-02-18T09:30:07.976Z,10.88
2023-02-18T09:32:35.835Z,10.76
2023-02-18T09:35:03.755Z,10.80
2023-02-18T09:37:31.780Z,10.72
2023-02-18T09:40:00.086Z,10.67
2023-02-18T09:42:31.499Z,10.70
2023-02-18T09:45:01.422Z,10.71
2023-02-18T09:47:34.411Z,10.71
2023-02-18T09:50:08.700Z,10.67
2023-02-18T09:52:38.360Z,10.60
2023-02-18T09:55:18.986Z,10.28
2023-02-18T09:57:48.848Z,10.20
2023-02-18T10:00:20.846Z,10.23
2023-02-18T10:02:56.432Z,10.29
2023-02-18T10:05:25.495Z,10.34
2023-02-18T10:07:57.208Z,10.26
2023-02-18T10:10:32.958Z,10.13
2023-02-18T10:13:00.605Z,10.13
2023-02-18T10:15:30.945Z,10.08
2023-02-18T10:18:00.367Z,10.08
2023-02-18T10:20:30.576Z,10.10
2023-02-18T10:23:00.864Z,10.06
2023-02-18T10:25:29.806Z,10.08
2023-02-18T10:27:59.399Z,10.08
2023-02-18T10:30:32.614Z,10.13
2023-02-18T10:33:12.041Z,10.19
2023-02-18T10:35:42.200Z,10.01
2023-02-18T10:38:16.581Z,10.01
2023-02-18T10:40:53.414Z,10.16
2023-02-18T10:43:27.384Z,10.11
2023-02-18T10:46:02.040Z,9.95
2023-02-18T10:48:41.504Z,10.15
2023-02-18T10:51:16.483Z,10.12
2023-02-18T10:53:45.308Z,9.99
2023-02-18T10:56:33.726Z,10.03
2023-02-18T10:59:03.829Z,9.97
2023-02-18T11:01:32.390Z,9.97
2023-02-18T11:04:09.769Z,9.96
2023-02-18T11:06:41.410Z,10.21
2023-02-18T11:09:26.238Z,9.97
2023-02-18T11:12:08.458Z,10.14
2023-02-18T11:14:41.686Z,10.04
2023-02-18T11:17:16.711Z,9.99
2023-02-18T11:19:53.488Z,10.00
2023-02-18T11:22:23.162Z,10.35
2023-02-18T11:24:55.241Z,10.06
2023-02-18T11:27:27.053Z,10.02
2023-02-18T11:29:56.190Z,10.14
2023-02-18T11:32:27.931Z,9.97
2023-02-18T11:34:57.114Z,9.96
2023-02-18T11:37:25.682Z,10.03
2023-02-18T11:39:55.907Z,10.06
2023-02-18T11:42:26.272Z,9.99
2023-02-18T11:44:55.437Z,10.07
2023-02-18T11:47:26.522Z,10.06
2023-02-18T11:50:07.649Z,10.02
2023-02-18T11:52:38.220Z,9.92
2023-02-18T11:55:09.692Z,9.90
2023-02-18T11:57:39.997Z,9.99
2023-02-18T12:00:22.243Z,9.88
2023-02-18T12:02:51.054Z,9.91
2023-02-18T12:05:24.193Z,10.00
2023-02-18T12:07:54.832Z,10.06
2023-02-18T12:10:27.590Z,9.97
2023-02-18T12:12:59.782Z,10.11
2023-02-18T12:15:34.187Z,10.30
2023-02-18T12:18:26.503Z,10.62
2023-02-18T12:21:12.880Z,10.79
2023-02-18T12:23:47.034Z,10.79
2023-02-18T12:26:23.365Z,10.72
2023-02-18T12:29:06.500Z,10.83
2023-02-18T12:31:46.331Z,10.70
2023-02-18T12:34:25.051Z,10.76
2023-02-18T12:37:02.920Z,10.73
2023-02-18T12:39:40.621Z,10.71
2023-02-18T12:42:20.474Z,10.54
2023-02-18T12:45:01.308Z,10.67
2023-02-18T12:47:42.474Z,10.73
2023-02-18T12:50:25.681Z,10.78
2023-02-18T12:53:06.731Z,10.76
2023-02-18T12:55:45.253Z,10.69
2023-02-18T12:58:23.055Z,10.79
2023-02-18T13:01:00.382Z,10.88
2023-02-18T13:03:48.179Z,10.99
2023-02-18T13:06:25.196Z,11.07
2023-02-18T13:09:03.456Z,11.15
2023-02-18T13:11:38.069Z,11.14
2023-02-18T13:14:12.607Z,10.86
2023-02-18T13:16:41.428Z,10.60
2023-02-18T13:19:17.486Z,10.49
2023-02-18T13:21:46.730Z,10.50
2023-02-18T13:24:20.217Z,10.45
2023-02-18T13:26:50.424Z,10.45
2023-02-18T13:29:24.502Z,10.69
2023-02-18T13:32:03.141Z,10.80
2023-02-18T13:34:35.361Z,11.09
2023-02-18T13:37:08.829Z,11.12
2023-02-18T13:39:38.582Z,11.16
2023-02-18T13:42:25.832Z,11.13
2023-02-18T13:45:24.685Z,11.23
2023-02-18T13:47:52.725Z,11.34
2023-02-18T13:50:33.202Z,11.31
2023-02-18T13:53:24.706Z,11.35
2023-02-18T13:56:00.120Z,11.29
2023-02-18T13:58:32.993Z,11.28
2023-02-18T14:01:04.077Z,11.22
2023-02-18T14:03:53.534Z,11.27
2023-02-18T14:06:22.908Z,11.31
2023-02-18T14:09:05.326Z,11.27
2023-02-18T14:11:48.619Z,11.35
2023-02-18T14:14:39.672Z,11.37
2023-02-18T14:17:32.014Z,11.35
2023-02-18T14:20:34.669Z,11.29
2023-02-18T14:23:02.536Z,11.33
2023-02-18T14:25:38.658Z,11.28
2023-02-18T14:28:42.210Z,11.23
2023-02-18T14:31:30.353Z,11.19
2023-02-18T14:34:18.814Z,11.30
2023-02-18T14:36:52.257Z,11.29
2023-02-18T14:39:36.145Z,11.43
2023-02-18T14:42:11.330Z,11.42
2023-02-18T14:44:54.445Z,11.50
2023-02-18T14:47:29.143Z,11.64
2023-02-18T14:49:59.735Z,11.53
2023-02-18T14:52:32.586Z,11.62
2023-02-18T14:55:02.475Z,11.49
2023-02-18T14:57:35.459Z,11.51
2023-02-18T15:00:06.747Z,11.48
2023-02-18T15:02:38.641Z,11.43
2023-02-18T15:05:14.580Z,11.45
2023-02-18T15:07:42.460Z,11.54
2023-02-18T15:10:15.981Z,11.52
2023-02-18T15:12:43.787Z,11.45
2023-02-18T15:15:16.369Z,11.49
2023-02-18T15:17:47.423Z,11.61
2023-02-18T15:20:16.110Z,11.59
2023-02-18T15:22:44.762Z,11.57
2023-02-18T15:25:14.331Z,11.59
2023-02-18T15:27:45.925Z,11.64
2023-02-18T15:30:25.990Z,11.63
2023-02-18T15:32:54.826Z,11.60
2023-02-18T15:35:24.400Z,11.74
2023-02-18T15:37:54.597Z,11.60
2023-02-18T15:40:23.866Z,11.61
2023-02-18T15:42:52.876Z,11.65
2023-02-18T15:45:22.948Z,11.63
2023-02-18T15:47:52.876Z,11.62
2023-02-18T15:50:22.878Z,11.67
2023-02-18T15:52:51.159Z,11.65
2023-02-18T15:55:25.431Z,11.64
2023-02-18T15:57:54.454Z,11.60
2023-02-18T16:00:30.084Z,11.62
2023-02-18T16:03:04.237Z,11.66
2023-02-18T16:05:32.203Z,11.58
2023-02-18T16:08:02.315Z,11.55
2023-02-18T16:10:43.995Z,11.67
2023-02-18T16:13:14.817Z,11.53
2023-02-18T16:15:45.846Z,11.62
2023-02-18T16:18:26.175Z,11.55
2023-02-18T16:20:55.712Z,11.53
2023-02-18T16:23:31.240Z,11.55
2023-02-18T16:26:10.852Z,11.47
2023-02-18T16:28:42.707Z,11.54
2023-02-18T16:31:12.150Z,11.44
2023-02-18T16:33:39.884Z,11.47
2023-02-18T16:36:08.684Z,11.50
2023-02-18T16:38:37.019Z,11.47
2023-02-18T16:41:05.120Z,11.44
2023-02-18T16:43:33.232Z,11.42
2023-02-18T16:46:08.155Z,11.39
2023-02-18T16:48:40.613Z,11.43
2023-02-18T16:51:12.388Z,11.30
2023-02-18T16:53:40.086Z,11.37
2023-02-18T16:56:14.324Z,11.33
2023-02-18T16:58:42.146Z,11.28
2023-02-18T17:01:20.441Z,11.34
2023-02-18T17:03:49.751Z,11.38
2023-02-18T17:06:17.894Z,11.41
2023-02-18T17:08:45.759Z,11.42
2023-02-18T17:11:20.521Z,11.45
2023-02-18T17:13:49.168Z,11.35
2023-02-18T17:16:17.450Z,11.43
2023-02-18T17:18:45.480Z,11.36
2023-02-18T17:21:16.004Z,11.36
2023-02-18T17:23:44.349Z,11.38
2023-02-18T17:26:15.731Z,11.41
2023-02-18T17:28:43.436Z,11.51
2023-02-18T17:31:14.710Z,11.37
2023-02-18T17:33:42.880Z,11.38
2023-02-18T17:36:11.582Z,11.41
2023-02-18T17:38:41.269Z,11.36
2023-02-18T17:41:09.215Z,11.38
2023-02-18T17:43:38.100Z,11.38
2023-02-18T17:46:06.365Z,11.39
2023-02-18T17:48:34.076Z,11.40
2023-02-18T17:51:01.910Z,11.36
2023-02-18T17:53:29.803Z,11.31
2023-02-18T17:55:59.063Z,11.22
2023-02-18T17:58:26.851Z,11.09
2023-02-18T18:00:55.909Z,11.07
2023-02-18T18:03:24.307Z,11.01
2023-02-18T18:05:54.468Z,10.93
2023-02-18T18:08:22.174Z,10.90
2023-02-18T18:10:51.415Z,10.79
2023-02-18T18:13:22.898Z,10.70
2023-02-18T18:15:51.138Z,10.63
2023-02-18T18:18:19.761Z,10.63
2023-02-18T18:20:49.765Z,10.72
2023-02-18T18:23:18.429Z,10.68
2023-02-18T18:25:47.446Z,10.69
2023-02-18T18:28:15.777Z,10.82
2023-02-18T18:30:47.423Z,10.68
2023-02-18T18:33:17.078Z,10.64
2023-02-18T18:35:46.903Z,10.60
2023-02-18T18:38:14.821Z,10.58
2023-02-18T18:40:42.845Z,10.48
2023-02-18T18:43:17.055Z,10.38
2023-02-18T18:45:46.443Z,10.47
2023-02-18T18:48:14.373Z,10.50
2023-02-18T18:50:42.323Z,10.52
2023-02-18T18:53:17.671Z,10.63
2023-02-18T18:55:46.049Z,10.58
2023-02-18T18:58:13.729Z,10.60
2023-02-18T19:00:43.837Z,10.63
2023-02-18T19:03:13.595Z,10.71
2023-02-18T19:05:43.044Z,10.69
2023-02-18T19:08:12.780Z,10.68
2023-02-18T19:10:42.422Z,10.75
2023-02-18T19:13:13.712Z,10.72
2023-02-18T19:15:41.844Z,10.78
2023-02-18T19:18:16.682Z,10.83
2023-02-18T19:20:44.631Z,10.87
2023-02-18T19:23:12.884Z,10.84
2023-02-18T19:25:41.546Z,10.80
2023-02-18T19:28:13.646Z,10.81
2023-02-18T19:30:42.555Z,10.89
2023-02-18T19:33:12.182Z,10.84
2023-02-18T19:35:42.135Z,10.89
2023-02-18T19:38:11.222Z,10.89
2023-02-18T19:40:39.440Z,10.87
2023-02-18T19:43:08.097Z,10.93
2023-02-18T19:45:36.308Z,10.93
2023-02-18T19:48:04.123Z,11.06
2023-02-18T19:50:32.568Z,10.87
2023-02-18T19:53:02.021Z,10.92
2023-02-18T19:55:29.838Z,10.84
2023-02-18T19:57:57.496Z,10.91
2023-02-18T20:00:25.190Z,10.90
2023-02-18T20:02:52.924Z,10.88
2023-02-18T20:05:20.873Z,10.90
2023-02-18T20:07:48.558Z,10.90
2023-02-18T20:10:20.059Z,10.90
2023-02-18T20:12:52.574Z,10.89
2023-02-18T20:15:20.765Z,10.89
2023-02-18T20:17:48.485Z,10.90
2023-02-18T20:20:16.241Z,10.81
2023-02-18T20:22:44.053Z,10.85
2023-02-18T20:25:11.748Z,10.91
2023-02-18T20:27:51.100Z,10.92
2023-02-18T20:30:27.329Z,10.86
2023-02-18T20:32:55.050Z,10.80
2023-02-18T20:35:22.743Z,10.78
2023-02-18T20:37:50.420Z,10.83
2023-02-18T20:40:18.544Z,10.72
2023-02-18T20:42:47.590Z,10.76
2023-02-18T20:45:15.364Z,10.75
2023-02-18T20:47:43.322Z,10.79
2023-02-18T20:50:11.076Z,10.67
2023-02-18T20:52:38.792Z,10.69
2023-02-18T20:55:07.050Z,10.55
2023-02-18T20:57:34.982Z,10.56
2023-02-18T21:00:05.937Z,10.46
2023-02-18T21:02:33.752Z,10.44
2023-02-18T21:05:01.520Z,10.44
2023-02-18T21:07:29.176Z,10.50
2023-02-18T21:09:57.085Z,10.43
2023-02-18T21:12:24.769Z,10.35
2023-02-18T21:14:52.423Z,10.26
2023-02-18T21:17:22.079Z,10.27
2023-02-18T21:19:49.765Z,10.41
2023-02-18T21:22:17.604Z,10.35
2023-02-18T21:24:45.273Z,10.27
2023-02-18T21:27:12.934Z,10.26
2023-02-18T21:29:40.579Z,10.33
2023-02-18T21:32:08.484Z,10.34
2023-02-18T21:34:37.601Z,10.27
2023-02-18T21:37:05.293Z,10.26
2023-02-18T21:39:32.948Z,10.22
2023-02-18T21:42:03.619Z,10.16
2023-02-18T21:44:41.748Z,10.32
2023-02-18T21:47:10.197Z,10.26
2023-02-18T21:49:39.585Z,10.28
2023-02-18T21:52:09.493Z,10.32
2023-02-18T21:54:40.303Z,10.20
2023-02-18T21:57:09.992Z,10.28
2023-02-18T21:59:38.440Z,10.26
2023-02-18T22:02:07.338Z,10.35
2023-02-18T22:04:36.136Z,10.28
2023-02-18T22:07:05.380Z,10.22
2023-02-18T22:09:33.268Z,10.31
2023-02-18T22:12:01.044Z,10.28
2023-02-18T22:14:28.773Z,10.37
2023-02-18T22:16:56.798Z,10.28
2023-02-18T22:19:24.780Z,10.31
2023-02-18T22:21:52.459Z,10.37
2023-02-18T22:24:21.540Z,10.32
2023-02-18T22:26:50.349Z,10.22
2023-02-18T22:29:19.564Z,10.31
2023-02-18T22:31:48.136Z,10.29
2023-02-18T22:34:16.086Z,10.23
2023-02-18T22:36:44.210Z,10.28
2023-02-18T22:39:12.878Z,10.27
2023-02-18T22:41:42.204Z,10.26
2023-02-18T22:44:13.194Z,10.26
2023-02-18T22:46:41.052Z,10.29
2023-02-18T22:49:09.219Z,10.25
2023-02-18T22:51:38.765Z,10.36
2023-02-18T22:54:07.600Z,10.29
2023-02-18T22:56:35.356Z,10.33
2023-02-18T22:59:04.506Z,10.35
2023-02-18T23:01:34.358Z,10.34
2023-02-18T23:04:05.002Z,10.44
2023-02-18T23:06:32.747Z,10.34
2023-02-18T23:09:00.466Z,10.35
2023-02-18T23:11:28.698Z,10.34
2023-02-18T23:14:19.875Z,10.35
2023-02-18T23:17:07.884Z,10.38
2023-02-18T23:19:36.849Z,10.32
2023-02-18T23:22:05.010Z,10.34
2023-02-18T23:24:33.716Z,10.34
2023-02-18T23:27:01.406Z,10.34
2023-02-18T23:29:29.189Z,10.38
2023-02-18T23:31:58.363Z,10.41
2023-02-18T23:34:26.144Z,10.52
2023-02-18T23:36:53.931Z,10.37
2023-02-18T23:39:23.305Z,10.41
2023-02-18T23:41:51.677Z,10.44
2023-02-18T23:44:20.903Z,10.42
2023-02-18T23:46:48.857Z,10.41
2023-02-18T23:49:19.924Z,10.57
2023-02-18T23:51:47.566Z,10.51
2023-02-18T23:54:15.347Z,10.50
2023-02-18T23:56:43.151Z,10.60
2023-02-18T23:59:11.805Z,10.50
